Time;durP1;ratioP1;P1;durP2;ratioP2;P2;SDS_P1;SDS_P2;PMS_P1;PMS_P2;Temp;Humidity;BMP_temperature;BMP_pressure;BME280_temperature;BME280_humidity;BME280_pressure;Samples;Min_cycle;Max_cycle;Signal;HPM_P1;HPM_P2
2023/10/10 00:01:02;;;;;;;8.27;2.53;;;;;;;;;;4992389;28;20847;-73
2023/10/10 00:03:30;;;;;;;9.35;2.55;;;;;;;;;;4977400;28;20050;-73
2023/10/10 00:05:57;;;;;;;7.85;2.50;;;;;;;;;;4978659;28;20057;-72
2023/10/10 00:08:33;;;;;;;8.38;2.72;;;;;;;;;;4981126;28;20045;-71
2023/10/10 00:10:59;;;;;;;12.13;3.45;;;;;;;;;;4994550;28;20057;-71
2023/10/10 00:13:24;;;;;;;14.02;2.88;;;;;;;;;;4982120;28;20054;-71
2023/10/10 00:15:51;;;;;;;11.18;2.65;;;;;;;;;;4982495;28;20049;-73
2023/10/10 00:18:19;;;;;;;11.05;2.60;;;;;;;;;;4980733;28;20595;-73
2023/10/10 00:21:08;;;;;;;12.27;2.85;;;;;;;;;;4981611;28;20042;-73
2023/10/10 00:23:47;;;;;;;6.38;2.33;;;;;;;;;;4981849;28;20047;-73
2023/10/10 00:26:14;;;;;;;16.58;2.72;;;;;;;;;;4981763;28;20531;-72
2023/10/10 00:28:45;;;;;;;5.97;2.40;;;;;;;;;;4981322;28;20042;-72
2023/10/10 00:31:17;;;;;;;11.73;2.90;;;;;;;;;;4981797;28;20452;-74
2023/10/10 00:33:43;;;;;;;10.63;2.42;;;;;;;;;;4981640;28;20057;-73
2023/10/10 00:36:21;;;;;;;13.98;2.63;;;;;;;;;;4980152;28;20050;-72
2023/10/10 00:38:51;;;;;;;11.90;3.17;;;;;;;;;;4979781;28;20085;-73
2023/10/10 00:41:16;;;;;;;10.27;2.53;;;;;;;;;;4981233;28;20112;-73
2023/10/10 00:43:42;;;;;;;6.90;2.30;;;;;;;;;;4979484;28;20050;-74
2023/10/10 00:46:11;;;;;;;13.68;2.80;;;;;;;;;;4981207;28;20068;-71
2023/10/10 00:48:38;;;;;;;13.07;2.72;;;;;;;;;;4980633;28;20052;-73
2023/10/10 00:51:10;;;;;;;13.88;3.83;;;;;;;;;;4981208;28;20081;-73
2023/10/10 00:53:39;;;;;;;8.02;2.55;;;;;;;;;;4981738;28;20038;-72
2023/10/10 00:56:06;;;;;;;8.27;2.70;;;;;;;;;;4980379;28;20078;-73
2023/10/10 00:58:36;;;;;;;8.73;2.67;;;;;;;;;;4979291;28;20096;-73
2023/10/10 01:01:10;;;;;;;11.63;2.97;;;;;;;;;;4979685;28;20158;-73
2023/10/10 01:03:45;;;;;;;6.90;2.33;;;;;;;;;;4980014;28;20132;-72
2023/10/10 01:06:24;;;;;;;12.20;2.35;;;;;;;;;;4980706;28;20047;-73
2023/10/10 01:08:57;;;;;;;9.07;2.08;;;;;;;;;;4969772;28;20062;-73
2023/10/10 01:11:23;;;;;;;15.65;3.58;;;;;;;;;;4958304;28;20046;-72
2023/10/10 01:13:52;;;;;;;13.13;2.75;;;;;;;;;;4971677;28;20073;-71
2023/10/10 01:16:18;;;;;;;11.95;2.70;;;;;;;;;;4977980;28;20042;-71
2023/10/10 01:18:57;;;;;;;8.45;2.15;;;;;;;;;;4978001;28;20161;-72
2023/10/10 01:21:33;;;;;;;9.32;2.10;;;;;;;;;;4979376;28;20093;-72
2023/10/10 01:24:18;;;;;;;12.15;2.63;;;;;;;;;;4981019;28;20089;-72
2023/10/10 01:26:47;;;;;;;10.90;2.42;;;;;;;;;;4978825;28;20137;-71
2023/10/10 01:29:25;;;;;;;9.88;2.30;;;;;;;;;;4978436;28;20129;-71
2023/10/10 01:31:58;;;;;;;6.95;2.55;;;;;;;;;;4979288;28;20100;-71
2023/10/10 01:34:39;;;;;;;9.70;2.92;;;;;;;;;;4979350;28;20156;-71
2023/10/10 01:37:20;;;;;;;9.50;2.33;;;;;;;;;;4962878;28;20145;-72
2023/10/10 01:40:16;;;;;;;8.95;2.67;;;;;;;;;;4980070;28;20132;-71
2023/10/10 01:42:53;;;;;;;5.60;2.42;;;;;;;;;;4963046;28;20054;-71
2023/10/10 01:45:20;;;;;;;7.40;2.65;;;;;;;;;;4979116;28;20804;-73
2023/10/10 01:47:58;;;;;;;7.93;2.10;;;;;;;;;;4978986;28;20120;-74
2023/10/10 01:50:25;;;;;;;6.40;2.25;;;;;;;;;;4961991;28;20050;-72
2023/10/10 01:52:53;;;;;;;12.73;2.33;;;;;;;;;;4995028;28;20042;-75
2023/10/10 01:55:22;;;;;;;7.00;2.10;;;;;;;;;;4979074;28;20466;-72
2023/10/10 01:57:48;;;;;;;13.30;3.15;;;;;;;;;;4978717;28;20042;-72
2023/10/10 02:02:53;;;;;;;11.70;2.70;;;;;;;;;;4979917;28;20101;-71
2023/10/10 02:05:32;;;;;;;8.88;2.75;;;;;;;;;;4994348;28;20046;-72
2023/10/10 02:07:58;;;;;;;12.80;3.05;;;;;;;;;;4979044;28;20093;-71
2023/10/10 02:10:29;;;;;;;7.70;2.92;;;;;;;;;;4994690;28;20136;-71
2023/10/10 02:12:59;;;;;;;8.90;2.10;;;;;;;;;;4993698;28;20053;-72
2023/10/10 02:15:32;;;;;;;16.85;3.33;;;;;;;;;;4978329;28;20042;-71
2023/10/10 02:18:04;;;;;;;11.32;2.67;;;;;;;;;;4987652;28;20054;-71
2023/10/10 02:20:50;;;;;;;6.78;2.53;;;;;;;;;;4979391;28;20069;-71
2023/10/10 02:23:31;;;;;;;6.93;2.88;;;;;;;;;;4980402;28;20087;-71
2023/10/10 02:26:03;;;;;;;11.77;3.70;;;;;;;;;;4959629;28;20046;-71
2023/10/10 02:28:47;;;;;;;8.65;2.55;;;;;;;;;;4988061;28;20100;-72
2023/10/10 02:31:16;;;;;;;10.00;2.20;;;;;;;;;;4977351;28;20046;-71
2023/10/10 02:33:49;;;;;;;13.88;2.90;;;;;;;;;;4979123;28;20046;-71
2023/10/10 02:36:30;;;;;;;11.98;2.35;;;;;;;;;;4979489;28;20592;-72
2023/10/10 02:39:01;;;;;;;7.53;2.53;;;;;;;;;;4956251;28;20046;-72
2023/10/10 02:41:38;;;;;;;13.40;3.17;;;;;;;;;;4978276;28;20181;-73
2023/10/10 02:44:05;;;;;;;6.70;2.30;;;;;;;;;;4978311;28;20188;-72
2023/10/10 02:46:36;;;;;;;8.65;2.83;;;;;;;;;;4976404;28;20069;-72
2023/10/10 02:49:09;;;;;;;10.02;2.80;;;;;;;;;;4977601;28;20061;-72
2023/10/10 02:51:48;;;;;;;8.07;2.10;;;;;;;;;;4977946;28;20046;-72
2023/10/10 02:54:21;;;;;;;14.52;2.80;;;;;;;;;;4977659;28;20054;-72
2023/10/10 02:56:49;;;;;;;9.13;2.47;;;;;;;;;;4961343;28;20042;-73
2023/10/10 02:59:23;;;;;;;5.97;2.05;;;;;;;;;;4993168;28;20057;-73
2023/10/10 03:04:18;;;;;;;11.90;3.13;;;;;;;;;;4977484;28;20124;-73
2023/10/10 03:06:44;;;;;;;5.70;2.00;;;;;;;;;;4978230;28;20133;-73
2023/10/10 03:09:28;;;;;;;12.23;2.65;;;;;;;;;;4977418;28;20117;-72
2023/10/10 03:12:05;;;;;;;12.43;2.83;;;;;;;;;;4975115;28;21040;-73
2023/10/10 03:14:33;;;;;;;6.68;2.63;;;;;;;;;;4978072;28;20085;-73
2023/10/10 03:17:05;;;;;;;12.48;3.00;;;;;;;;;;4993646;28;20543;-72
2023/10/10 03:19:38;;;;;;;7.03;2.40;;;;;;;;;;4983697;28;20074;-72
2023/10/10 03:25:04;;;;;;;9.13;2.50;;;;;;;;;;4978371;28;20120;-72
2023/10/10 03:30:35;;;;;;;9.93;2.50;;;;;;;;;;4976386;28;20053;-72
2023/10/10 03:33:09;;;;;;;10.20;2.88;;;;;;;;;;4972858;28;20133;-72
2023/10/10 03:35:58;;;;;;;7.72;2.45;;;;;;;;;;4977253;28;20042;-72
2023/10/10 05:25:25;;;;;;;13.23;3.70;;;;;;;;;;4959227;28;20959;-78
2023/10/10 05:27:52;;;;;;;14.25;2.67;;;;;;;;;;4961163;28;20399;-77
2023/10/10 05:30:23;;;;;;;12.73;2.50;;;;;;;;;;4961816;28;20053;-77
2023/10/10 05:33:01;;;;;;;12.77;2.97;;;;;;;;;;4961285;28;20085;-78
2023/10/10 05:35:35;;;;;;;11.27;3.08;;;;;;;;;;4959271;28;20399;-78
2023/10/10 05:38:00;;;;;;;21.85;2.70;;;;;;;;;;4961034;28;20058;-78
2023/10/10 05:40:27;;;;;;;17.58;3.25;;;;;;;;;;4960736;28;20053;-76
2023/10/10 05:42:52;;;;;;;8.65;2.40;;;;;;;;;;4960662;28;20061;-76
2023/10/10 05:45:21;;;;;;;19.95;3.05;;;;;;;;;;4960558;28;20050;-76
2023/10/10 05:47:47;;;;;;;10.40;3.33;;;;;;;;;;4961343;28;20045;-76
2023/10/10 05:50:13;;;;;;;10.40;2.63;;;;;;;;;;4961054;28;20116;-76
2023/10/10 05:52:43;;;;;;;14.93;3.00;;;;;;;;;;4960109;28;21031;-77
2023/10/10 05:55:12;;;;;;;11.82;3.15;;;;;;;;;;4961069;28;20257;-76
2023/10/10 05:57:39;;;;;;;12.65;2.72;;;;;;;;;;4959618;28;20061;-76
2023/10/10 06:00:15;;;;;;;12.60;3.17;;;;;;;;;;4959767;28;20082;-76
2023/10/10 06:02:42;;;;;;;12.82;3.60;;;;;;;;;;4973900;28;20058;-76
2023/10/10 06:05:09;;;;;;;7.85;2.78;;;;;;;;;;4960963;28;20054;-76
2023/10/10 06:07:42;;;;;;;6.35;2.67;;;;;;;;;;4960688;28;20133;-76
2023/10/10 06:10:16;;;;;;;7.50;2.85;;;;;;;;;;4960897;28;20057;-76
2023/10/10 06:12:46;;;;;;;11.30;2.75;;;;;;;;;;4958646;28;20070;-77
2023/10/10 06:15:19;;;;;;;13.10;2.75;;;;;;;;;;4958846;28;20078;-77
2023/10/10 06:17:45;;;;;;;11.43;2.83;;;;;;;;;;4960461;28;20182;-77
2023/10/10 06:20:16;;;;;;;5.15;2.45;;;;;;;;;;4959403;28;20104;-77
2023/10/10 06:22:44;;;;;;;7.90;2.70;;;;;;;;;;4959978;28;20057;-78
2023/10/10 06:25:17;;;;;;;10.88;2.60;;;;;;;;;;4959901;28;20077;-73
2023/10/10 06:27:46;;;;;;;14.27;3.03;;;;;;;;;;4959925;28;20067;-73
2023/10/10 06:30:17;;;;;;;11.95;3.28;;;;;;;;;;4960405;28;20042;-73
2023/10/10 06:32:43;;;;;;;7.20;2.38;;;;;;;;;;4959833;28;22024;-73
2023/10/10 06:37:43;;;;;;;13.23;3.08;;;;;;;;;;4959997;28;20084;-74
2023/10/10 06:40:10;;;;;;;8.57;2.40;;;;;;;;;;4960357;28;20555;-74
2023/10/10 06:42:37;;;;;;;10.98;2.70;;;;;;;;;;4959306;28;20098;-75
2023/10/10 06:45:11;;;;;;;10.50;2.65;;;;;;;;;;4975007;28;20524;-74
2023/10/10 06:47:43;;;;;;;10.35;3.78;;;;;;;;;;4959491;28;20047;-74
2023/10/10 06:50:12;;;;;;;6.63;2.85;;;;;;;;;;4959814;28;20042;-74
2023/10/10 06:52:38;;;;;;;16.05;3.30;;;;;;;;;;4959431;28;20054;-74
2023/10/10 06:55:10;;;;;;;13.48;3.15;;;;;;;;;;4959952;28;20423;-74
2023/10/10 06:57:38;;;;;;;;;;;;;;;;;;4958562;28;20065;-73
2023/10/10 07:00:20;;;;;;;8.82;2.60;;;;;;;;;;4959945;28;19928;-75
2023/10/10 07:02:50;;;;;;;12.80;2.97;;;;;;;;;;4970190;28;20042;-75
2023/10/10 07:05:19;;;;;;;8.98;2.80;;;;;;;;;;4979529;28;20050;-75
2023/10/10 07:07:46;;;;;;;9.98;3.05;;;;;;;;;;4979146;28;20416;-75
2023/10/10 07:10:24;;;;;;;13.95;2.92;;;;;;;;;;4978440;28;20058;-76
2023/10/10 07:12:50;;;;;;;9.77;2.85;;;;;;;;;;4978633;28;20145;-76
2023/10/10 07:15:16;;;;;;;13.88;4.03;;;;;;;;;;4979707;28;20125;-76
2023/10/10 07:17:41;;;;;;;11.82;3.10;;;;;;;;;;4978376;28;20077;-76
2023/10/10 07:22:34;;;;;;;10.85;3.85;;;;;;;;;;4978129;28;20141;-76
2023/10/10 07:25:31;;;;;;;12.23;2.88;;;;;;;;;;4979406;28;20050;-75
2023/10/10 07:28:00;;;;;;;8.60;2.63;;;;;;;;;;4979043;28;20101;-76
2023/10/10 07:30:35;;;;;;;12.68;2.88;;;;;;;;;;4978319;28;20035;-74
2023/10/10 07:33:03;;;;;;;14.15;2.92;;;;;;;;;;4991992;28;20047;-74
2023/10/10 07:35:28;;;;;;;10.63;3.03;;;;;;;;;;4978965;28;20058;-74
2023/10/10 07:37:58;;;;;;;15.70;3.67;;;;;;;;;;4979239;28;20046;-75
2023/10/10 07:40:31;;;;;;;11.63;3.08;;;;;;;;;;4978922;28;20491;-76
2023/10/10 07:43:01;;;;;;;18.10;3.03;;;;;;;;;;4978150;28;20058;-76
2023/10/10 07:45:33;;;;;;;17.35;3.72;;;;;;;;;;4979363;28;20049;-75
2023/10/10 07:50:46;;;;;;;12.57;3.75;;;;;;;;;;4977113;28;20046;-76
2023/10/10 07:53:12;;;;;;;14.95;3.50;;;;;;;;;;4975297;28;21060;-75
2023/10/10 07:58:43;;;;;;;10.98;3.10;;;;;;;;;;4974934;28;20553;-75
2023/10/10 08:01:18;;;;;;;13.80;4.15;;;;;;;;;;4979535;28;20050;-77
2023/10/10 08:03:47;;;;;;;12.57;2.97;;;;;;;;;;4978536;28;20049;-73
2023/10/10 08:06:22;;;;;;;9.60;3.17;;;;;;;;;;4979417;28;20038;-75
2023/10/10 08:09:09;;;;;;;11.18;2.70;;;;;;;;;;4976582;28;20061;-75
2023/10/10 08:11:37;;;;;;;13.20;3.33;;;;;;;;;;4983039;28;20051;-76
2023/10/10 08:14:06;;;;;;;17.48;2.92;;;;;;;;;;4977698;28;20050;-74
2023/10/10 08:16:36;;;;;;;9.18;2.95;;;;;;;;;;4977963;28;20100;-76
2023/10/10 08:19:05;;;;;;;11.20;3.03;;;;;;;;;;4977699;28;20680;-75
2023/10/10 08:21:38;;;;;;;10.23;3.58;;;;;;;;;;4978865;28;20045;-73
2023/10/10 08:24:11;;;;;;;12.30;2.85;;;;;;;;;;4976869;28;20050;-73
2023/10/10 08:26:40;;;;;;;10.80;3.95;;;;;;;;;;4976998;28;20435;-73
2023/10/10 08:29:10;;;;;;;9.65;3.20;;;;;;;;;;4979276;28;20675;-75
2023/10/10 08:31:36;;;;;;;6.47;2.60;;;;;;;;;;4982185;28;20089;-73
2023/10/10 08:34:02;;;;;;;7.32;2.72;;;;;;;;;;4982806;28;20087;-74
2023/10/10 08:36:28;;;;;;;13.70;3.40;;;;;;;;;;4980676;28;20055;-74
2023/10/10 08:38:58;;;;;;;13.93;2.72;;;;;;;;;;4979449;28;20058;-76
2023/10/10 08:41:31;;;;;;;14.57;3.33;;;;;;;;;;4981286;28;20494;-76
2023/10/10 08:44:01;;;;;;;13.30;2.95;;;;;;;;;;4982594;28;20065;-76
2023/10/10 08:46:31;;;;;;;15.63;3.33;;;;;;;;;;4972727;28;20061;-76
2023/10/10 08:49:03;;;;;;;8.27;2.85;;;;;;;;;;4965755;28;20504;-75
2023/10/10 08:51:33;;;;;;;8.85;2.72;;;;;;;;;;4981829;28;20050;-76
2023/10/10 08:54:09;;;;;;;8.45;2.97;;;;;;;;;;4983010;28;20061;-76
2023/10/10 08:56:59;;;;;;;10.15;3.40;;;;;;;;;;4984216;28;20054;-76
2023/10/10 08:59:29;;;;;;;10.95;3.55;;;;;;;;;;4987623;28;20050;-76
2023/10/10 09:02:07;;;;;;;14.80;2.80;;;;;;;;;;4989056;28;20136;-75
2023/10/10 09:04:33;;;;;;;6.03;2.55;;;;;;;;;;4989931;28;20053;-74
2023/10/10 09:07:00;;;;;;;10.75;3.10;;;;;;;;;;4984167;28;20165;-76
2023/10/10 09:09:33;;;;;;;15.07;3.38;;;;;;;;;;4981730;28;20113;-77
2023/10/10 09:12:02;;;;;;;8.93;2.63;;;;;;;;;;4982974;28;20042;-76
2023/10/10 09:14:43;;;;;;;6.78;2.90;;;;;;;;;;4981969;28;20136;-77
2023/10/10 09:17:28;;;;;;;13.32;3.08;;;;;;;;;;4994018;28;20050;-77
2023/10/10 09:19:57;;;;;;;7.80;3.10;;;;;;;;;;4980885;28;20137;-76
2023/10/10 09:22:34;;;;;;;11.13;2.72;;;;;;;;;;4980277;28;20526;-74
2023/10/10 09:25:18;;;;;;;7.45;2.92;;;;;;;;;;4981148;28;20050;-74
2023/10/10 09:28:03;;;;;;;10.50;3.03;;;;;;;;;;4981002;28;20050;-75
2023/10/10 09:30:33;;;;;;;7.68;2.85;;;;;;;;;;4980952;28;20080;-74
2023/10/10 09:33:02;;;;;;;13.10;2.97;;;;;;;;;;4980227;28;20046;-75
2023/10/10 09:35:28;;;;;;;14.63;3.63;;;;;;;;;;4979915;28;20149;-75
2023/10/10 09:37:54;;;;;;;12.48;3.00;;;;;;;;;;4980575;28;20141;-75
2023/10/10 09:40:20;;;;;;;12.48;3.22;;;;;;;;;;4979398;28;20141;-75
2023/10/10 09:45:35;;;;;;;9.25;3.47;;;;;;;;;;4980673;28;20050;-75
2023/10/10 09:48:06;;;;;;;10.73;3.40;;;;;;;;;;4980610;28;20958;-74
2023/10/10 09:50:37;;;;;;;11.55;3.30;;;;;;;;;;4979853;28;20054;-77
2023/10/10 09:53:06;;;;;;;10.32;3.28;;;;;;;;;;4981031;28;20086;-73
2023/10/10 10:09:32;;;;;;;9.63;3.05;;;;;;;;;;4979132;28;20671;-75
2023/10/10 10:12:19;;;;;;;11.18;3.20;;;;;;;;;;4977621;28;20046;-76
2023/10/10 10:15:04;;;;;;;8.68;2.92;;;;;;;;;;4979322;28;20909;-76
2023/10/10 10:17:47;;;;;;;19.58;3.13;;;;;;;;;;4979449;28;20672;-74
2023/10/10 10:20:46;;;;;;;15.50;3.47;;;;;;;;;;4962708;28;20077;-73
2023/10/10 10:23:27;;;;;;;12.77;3.20;;;;;;;;;;4992371;28;20076;-73
2023/10/10 10:25:54;;;;;;;9.55;2.88;;;;;;;;;;4979202;28;20061;-73
2023/10/10 10:28:28;;;;;;;12.77;3.33;;;;;;;;;;4979292;28;20253;-73
2023/10/10 10:30:54;;;;;;;10.00;3.08;;;;;;;;;;4979125;28;20050;-73
2023/10/10 10:33:24;;;;;;;11.98;3.35;;;;;;;;;;4980015;28;20046;-73
2023/10/10 10:36:05;;;;;;;12.75;3.40;;;;;;;;;;4979221;28;20073;-74
2023/10/10 10:38:31;;;;;;;11.13;3.20;;;;;;;;;;4977125;28;20463;-76
2023/10/10 10:41:07;;;;;;;8.52;3.70;;;;;;;;;;4980627;28;21080;-77
2023/10/10 10:43:41;;;;;;;9.65;3.20;;;;;;;;;;4982141;28;20065;-78
2023/10/10 10:46:15;;;;;;;12.02;3.50;;;;;;;;;;4981753;28;20157;-78
2023/10/10 10:48:47;;;;;;;8.63;3.17;;;;;;;;;;4978251;28;20049;-78
2023/10/10 10:53:59;;;;;;;4.82;3.00;;;;;;;;;;4981505;28;20074;-77
2023/10/10 10:59:12;;;;;;;8.73;2.78;;;;;;;;;;4980770;28;20073;-77
2023/10/10 11:02:00;;;;;;;12.02;2.92;;;;;;;;;;4981762;28;20185;-76
2023/10/10 11:04:42;;;;;;;8.45;2.83;;;;;;;;;;4981817;28;20105;-78
2023/10/10 11:07:14;;;;;;;7.43;3.13;;;;;;;;;;4974806;28;20074;-78
2023/10/10 11:09:52;;;;;;;7.35;2.90;;;;;;;;;;4962669;28;20110;-79
2023/10/10 11:12:21;;;;;;;7.82;3.08;;;;;;;;;;4961993;28;20078;-75
2023/10/10 11:14:49;;;;;;;9.88;2.97;;;;;;;;;;4959029;28;20716;-74
2023/10/10 11:17:18;;;;;;;12.27;3.92;;;;;;;;;;4959358;28;20054;-75
2023/10/10 11:19:46;;;;;;;15.77;3.72;;;;;;;;;;4959629;28;20149;-75
2023/10/10 11:22:38;;;;;;;9.40;3.15;;;;;;;;;;4959153;28;20145;-74
2023/10/10 11:25:04;;;;;;;9.18;3.50;;;;;;;;;;4957898;28;20043;-74
2023/10/10 11:27:32;;;;;;;7.07;3.10;;;;;;;;;;4959844;28;20137;-74
2023/10/10 11:30:08;;;;;;;14.43;3.20;;;;;;;;;;4974509;28;20102;-76
2023/10/10 11:32:47;;;;;;;8.43;2.50;;;;;;;;;;4958910;28;20693;-76
2023/10/10 11:35:22;;;;;;;8.48;2.70;;;;;;;;;;4956988;28;20058;-75
2023/10/10 11:38:00;;;;;;;10.48;3.58;;;;;;;;;;4952970;28;20046;-76
2023/10/10 11:42:56;;;;;;;10.23;2.95;;;;;;;;;;4955795;28;20054;-76
2023/10/10 11:45:27;;;;;;;8.93;3.08;;;;;;;;;;4955883;28;20047;-75
2023/10/10 11:48:00;;;;;;;12.50;3.88;;;;;;;;;;4957082;28;20365;-75
2023/10/10 11:50:43;;;;;;;10.50;3.30;;;;;;;;;;4957496;28;20047;-75
2023/10/10 11:53:15;;;;;;;18.90;3.92;;;;;;;;;;4954249;28;20113;-75
2023/10/10 11:55:44;;;;;;;9.48;3.05;;;;;;;;;;4955649;28;20046;-76
2023/10/10 11:58:16;;;;;;;11.45;3.20;;;;;;;;;;4957293;28;20049;-75
2023/10/10 12:00:43;;;;;;;5.50;3.28;;;;;;;;;;4956934;28;20516;-76
2023/10/10 12:03:12;;;;;;;5.65;2.78;;;;;;;;;;4971818;28;20054;-76
2023/10/10 12:05:47;;;;;;;8.75;3.22;;;;;;;;;;4960712;28;20137;-75
2023/10/10 12:08:15;;;;;;;7.30;2.95;;;;;;;;;;4961010;28;20747;-75
2023/10/10 12:10:47;;;;;;;6.97;3.13;;;;;;;;;;4960339;28;20675;-76
2023/10/10 12:13:19;;;;;;;11.52;3.22;;;;;;;;;;4960952;28;20046;-75
2023/10/10 12:15:46;;;;;;;10.07;2.92;;;;;;;;;;4959722;28;20054;-75
2023/10/10 12:18:13;;;;;;;7.78;3.15;;;;;;;;;;4958368;28;20109;-76
2023/10/10 12:20:44;;;;;;;8.85;3.65;;;;;;;;;;4959916;28;20157;-75
2023/10/10 12:23:11;;;;;;;6.03;2.77;;;;;;;;;;4975522;28;20480;-76
2023/10/10 12:25:41;;;;;;;8.02;3.00;;;;;;;;;;4960610;28;20051;-76
2023/10/10 12:28:12;;;;;;;12.18;3.78;;;;;;;;;;4959663;28;20563;-76
2023/10/10 12:30:40;;;;;;;12.18;3.28;;;;;;;;;;4959440;28;20130;-75
2023/10/10 12:33:07;;;;;;;8.50;2.90;;;;;;;;;;4961770;28;20827;-75
2023/10/10 12:35:33;;;;;;;7.90;2.83;;;;;;;;;;4961040;28;20385;-75
2023/10/10 12:38:01;;;;;;;11.13;3.22;;;;;;;;;;4973402;28;20545;-74
2023/10/10 12:40:29;;;;;;;11.52;3.20;;;;;;;;;;4980864;28;20126;-75
2023/10/10 12:42:54;;;;;;;7.90;3.00;;;;;;;;;;4978799;28;20057;-75
2023/10/10 12:45:20;;;;;;;7.07;2.70;;;;;;;;;;4980839;28;20054;-75
2023/10/10 12:47:45;;;;;;;8.25;3.00;;;;;;;;;;4979706;28;20053;-75
2023/10/10 12:50:14;;;;;;;6.53;3.13;;;;;;;;;;4980781;28;20500;-75
2023/10/10 12:52:45;;;;;;;10.65;3.13;;;;;;;;;;4981356;28;20046;-75
2023/10/10 12:55:11;;;;;;;5.53;2.97;;;;;;;;;;4981707;28;20476;-75
2023/10/10 12:57:37;;;;;;;6.78;2.63;;;;;;;;;;4980699;28;20057;-75
2023/10/10 13:02:48;;;;;;;16.40;3.58;;;;;;;;;;4980839;28;20054;-75
2023/10/10 13:05:16;;;;;;;6.30;2.92;;;;;;;;;;4981433;28;20054;-75
2023/10/10 13:07:43;;;;;;;6.60;3.20;;;;;;;;;;4981261;28;20046;-75
2023/10/10 13:10:13;;;;;;;8.35;3.47;;;;;;;;;;4981396;28;20108;-75
2023/10/10 13:12:39;;;;;;;5.63;2.85;;;;;;;;;;4980299;28;20077;-75
2023/10/10 13:15:17;;;;;;;8.30;3.45;;;;;;;;;;4980491;28;20082;-75
2023/10/10 13:18:25;;;;;;;9.35;2.80;;;;;;;;;;4978944;28;20134;-75
2023/10/10 13:20:31;;;;;;;8.95;3.55;;;;;;;;;;4980494;28;20146;-74
2023/10/10 13:22:56;;;;;;;5.35;2.88;;;;;;;;;;4979819;28;20141;-75
2023/10/10 13:25:22;;;;;;;10.13;3.30;;;;;;;;;;4979193;28;20061;-75
2023/10/10 13:27:52;;;;;;;8.27;3.20;;;;;;;;;;4978934;28;20399;-75
2023/10/10 13:30:18;;;;;;;8.93;3.42;;;;;;;;;;4980544;28;20484;-76
2023/10/10 13:32:43;;;;;;;13.00;2.85;;;;;;;;;;4979131;28;20078;-75
2023/10/10 13:35:09;;;;;;;8.00;2.83;;;;;;;;;;4976210;28;20178;-75
2023/10/10 13:37:40;;;;;;;13.48;3.38;;;;;;;;;;4978944;28;20042;-75
2023/10/10 13:40:07;;;;;;;8.32;2.83;;;;;;;;;;4977975;28;20042;-75
2023/10/10 13:42:32;;;;;;;8.55;2.72;;;;;;;;;;4977363;28;20093;-75
2023/10/10 13:45:09;;;;;;;6.45;3.10;;;;;;;;;;4977642;28;20054;-75
2023/10/10 13:47:36;;;;;;;6.15;2.80;;;;;;;;;;4978452;28;20042;-75
2023/10/10 13:50:28;;;;;;;9.88;3.03;;;;;;;;;;4976698;28;20148;-76
2023/10/10 13:52:54;;;;;;;6.22;2.90;;;;;;;;;;4978473;28;20089;-76
2023/10/10 13:55:19;;;;;;;7.00;2.95;;;;;;;;;;4977135;28;20073;-76
2023/10/10 13:57:44;;;;;;;7.18;3.35;;;;;;;;;;4978346;28;20054;-76
2023/10/10 14:00:29;;;;;;;7.75;2.88;;;;;;;;;;4978128;28;20046;-76
2023/10/10 14:02:59;;;;;;;7.60;2.75;;;;;;;;;;4977913;28;20070;-75
2023/10/10 14:05:29;;;;;;;5.15;3.00;;;;;;;;;;4977813;28;20430;-75
2023/10/10 14:07:55;;;;;;;7.60;3.08;;;;;;;;;;4977090;28;20053;-75
2023/10/10 14:10:20;;;;;;;9.18;3.17;;;;;;;;;;4979391;28;20054;-76
2023/10/10 14:12:46;;;;;;;12.57;2.63;;;;;;;;;;4979866;28;20058;-75
2023/10/10 14:15:12;;;;;;;6.45;2.70;;;;;;;;;;4980305;28;20046;-75
2023/10/10 14:17:37;;;;;;;8.68;3.30;;;;;;;;;;4979784;28;20054;-75
2023/10/10 14:20:20;;;;;;;7.50;3.35;;;;;;;;;;4978901;28;20093;-76
2023/10/10 14:22:49;;;;;;;6.95;2.97;;;;;;;;;;4978343;28;20105;-76
2023/10/10 14:25:16;;;;;;;7.40;2.58;;;;;;;;;;4980232;28;20042;-76
2023/10/10 14:27:43;;;;;;;11.63;3.13;;;;;;;;;;4978671;28;20177;-77
2023/10/10 14:30:23;;;;;;;10.50;3.17;;;;;;;;;;4979058;28;20044;-76
2023/10/10 14:32:54;;;;;;;6.90;2.83;;;;;;;;;;4977996;28;20050;-78
2023/10/10 14:35:23;;;;;;;9.30;3.15;;;;;;;;;;4978601;28;20092;-76
2023/10/10 14:37:55;;;;;;;6.78;2.35;;;;;;;;;;4979400;28;20065;-78
2023/10/10 14:40:23;;;;;;;11.65;2.65;;;;;;;;;;4994222;28;20058;-77
2023/10/10 14:42:52;;;;;;;11.13;2.92;;;;;;;;;;4979056;28;20101;-77
2023/10/10 14:45:28;;;;;;;8.38;2.97;;;;;;;;;;4979858;28;20052;-77
2023/10/10 14:47:55;;;;;;;9.10;2.90;;;;;;;;;;4979202;28;21042;-76
2023/10/10 14:50:24;;;;;;;9.43;2.92;;;;;;;;;;4979229;28;20069;-76
2023/10/10 14:52:53;;;;;;;12.93;3.28;;;;;;;;;;4978598;28;20042;-77
2023/10/10 14:55:25;;;;;;;8.05;2.72;;;;;;;;;;4979653;28;20124;-77
2023/10/10 14:57:55;;;;;;;10.13;3.00;;;;;;;;;;4979378;28;20057;-77
2023/10/10 15:00:22;;;;;;;8.10;2.88;;;;;;;;;;4979494;28;21043;-77
2023/10/10 15:02:52;;;;;;;11.13;3.25;;;;;;;;;;4977070;28;20050;-77
2023/10/10 15:05:18;;;;;;;9.32;3.25;;;;;;;;;;4978893;28;20046;-76
2023/10/10 15:07:44;;;;;;;9.00;2.92;;;;;;;;;;4977670;28;20085;-77
2023/10/10 15:10:11;;;;;;;12.55;3.28;;;;;;;;;;4979046;28;20085;-76
2023/10/10 15:12:36;;;;;;;6.88;3.03;;;;;;;;;;4977787;28;20437;-76
2023/10/10 15:15:02;;;;;;;7.05;2.83;;;;;;;;;;4978763;28;20104;-75
2023/10/10 15:17:28;;;;;;;9.20;2.95;;;;;;;;;;4978850;28;20436;-78
2023/10/10 15:19:53;;;;;;;9.70;3.60;;;;;;;;;;4978459;28;20050;-75
2023/10/10 15:22:18;;;;;;;7.10;3.13;;;;;;;;;;4995627;28;20057;-77
2023/10/10 15:24:50;;;;;;;6.95;3.20;;;;;;;;;;4975417;28;20101;-78
2023/10/10 15:27:17;;;;;;;;;;;;;;;;;;4978498;28;20068;-74
2023/10/10 15:29:42;;;;;;;11.45;2.97;;;;;;;;;;4974857;28;19925;-76
2023/10/10 15:32:09;;;;;;;8.73;2.95;;;;;;;;;;4978308;28;20435;-72
2023/10/10 15:34:34;;;;;;;7.55;3.08;;;;;;;;;;4978553;28;20054;-75
2023/10/10 15:37:09;;;;;;;10.30;3.40;;;;;;;;;;4974312;28;20046;-77
2023/10/10 15:39:38;;;;;;;6.40;3.15;;;;;;;;;;4979484;28;20042;-75
2023/10/10 15:42:04;;;;;;;11.23;3.13;;;;;;;;;;4979973;28;20046;-76
2023/10/10 15:44:30;;;;;;;6.55;3.20;;;;;;;;;;4963119;28;20054;-75
2023/10/10 15:46:58;;;;;;;6.68;3.55;;;;;;;;;;4976035;28;20072;-75
2023/10/10 15:49:25;;;;;;;6.03;2.53;;;;;;;;;;4978566;28;20052;-75
2023/10/10 15:51:52;;;;;;;10.93;3.08;;;;;;;;;;4980164;28;20042;-76
2023/10/10 15:54:19;;;;;;;9.63;3.22;;;;;;;;;;4978528;28;20050;-78
2023/10/10 15:56:47;;;;;;;13.73;3.05;;;;;;;;;;4979942;28;20057;-74
2023/10/10 15:59:15;;;;;;;8.02;3.75;;;;;;;;;;4978811;28;20586;-79
2023/10/10 16:01:46;;;;;;;11.20;3.35;;;;;;;;;;4979280;28;20074;-76
2023/10/10 16:04:13;;;;;;;7.83;3.00;;;;;;;;;;4980870;28;20511;-77
2023/10/10 16:06:41;;;;;;;6.18;3.30;;;;;;;;;;4978755;28;20112;-78
2023/10/10 16:09:10;;;;;;;11.45;3.30;;;;;;;;;;4978597;28;20043;-75
2023/10/10 16:11:40;;;;;;;10.75;3.53;;;;;;;;;;4980373;28;20042;-77
2023/10/10 16:14:13;;;;;;;7.20;3.58;;;;;;;;;;4979991;28;20051;-75
2023/10/10 16:16:45;;;;;;;6.38;3.13;;;;;;;;;;4978526;28;20170;-78
2023/10/10 16:19:25;;;;;;;9.18;3.40;;;;;;;;;;4978001;28;20403;-77
2023/10/10 16:21:53;;;;;;;8.57;3.63;;;;;;;;;;4980715;28;20093;-75
2023/10/10 16:24:18;;;;;;;9.15;3.55;;;;;;;;;;4979284;28;20050;-76
2023/10/10 16:26:46;;;;;;;11.93;3.20;;;;;;;;;;4978694;28;20486;-75
2023/10/10 16:29:11;;;;;;;9.52;3.08;;;;;;;;;;4977937;28;20138;-75
2023/10/10 16:31:43;;;;;;;5.82;3.20;;;;;;;;;;4979254;28;20149;-76
2023/10/10 16:34:09;;;;;;;7.50;3.60;;;;;;;;;;4962155;28;20049;-75
2023/10/10 16:36:34;;;;;;;7.20;2.80;;;;;;;;;;4978886;28;20050;-73
2023/10/10 16:39:00;;;;;;;9.35;3.33;;;;;;;;;;4979491;28;20054;-75
2023/10/10 16:41:25;;;;;;;12.77;4.88;;;;;;;;;;4979454;28;20459;-75
2023/10/10 16:43:50;;;;;;;10.27;3.92;;;;;;;;;;4980212;28;20058;-75
2023/10/10 16:46:17;;;;;;;11.43;3.42;;;;;;;;;;4978021;28;20038;-77
2023/10/10 16:48:46;;;;;;;7.32;3.38;;;;;;;;;;4979418;28;20046;-75
2023/10/10 16:51:13;;;;;;;15.43;3.58;;;;;;;;;;4976128;28;20416;-75
2023/10/10 16:53:43;;;;;;;8.60;4.00;;;;;;;;;;4979366;28;20407;-74
2023/10/10 16:56:09;;;;;;;9.60;3.92;;;;;;;;;;4977884;28;20058;-74
2023/10/10 16:58:40;;;;;;;14.65;3.88;;;;;;;;;;4978704;28;20549;-74
2023/10/10 17:01:13;;;;;;;8.65;3.38;;;;;;;;;;4979191;28;20050;-74
2023/10/10 17:03:40;;;;;;;7.80;3.38;;;;;;;;;;4979278;28;20547;-76
2023/10/10 17:06:08;;;;;;;8.07;3.58;;;;;;;;;;4978652;28;20042;-74
2023/10/10 17:08:33;;;;;;;10.40;3.67;;;;;;;;;;4981107;28;20042;-74
2023/10/10 17:11:10;;;;;;;8.25;4.00;;;;;;;;;;4979197;28;20626;-74
2023/10/10 17:13:43;;;;;;;11.02;4.05;;;;;;;;;;4980740;28;20050;-75
2023/10/10 17:16:12;;;;;;;9.90;4.13;;;;;;;;;;4979462;28;20074;-76
2023/10/10 17:18:41;;;;;;;13.15;3.70;;;;;;;;;;4962778;28;20054;-75
2023/10/10 17:21:13;;;;;;;11.25;4.03;;;;;;;;;;4980723;28;20054;-74
2023/10/10 17:23:46;;;;;;;8.80;3.83;;;;;;;;;;4981052;28;20142;-75
2023/10/10 17:26:13;;;;;;;7.57;3.50;;;;;;;;;;4978699;28;20074;-76
2023/10/10 17:28:39;;;;;;;11.57;5.03;;;;;;;;;;4979598;28;20124;-74
2023/10/10 17:31:06;;;;;;;9.30;4.68;;;;;;;;;;4980665;28;20431;-75
2023/10/10 17:33:39;;;;;;;13.40;4.38;;;;;;;;;;4980881;28;20050;-76
2023/10/10 17:36:08;;;;;;;8.52;4.57;;;;;;;;;;4979817;28;20066;-75